Time;durP1;ratioP1;P1;durP2;ratioP2;P2;SDS_P1;SDS_P2;PMS_P1;PMS_P2;Temp;Humidity;BMP_temperature;BMP_pressure;BME280_temperature;BME280_humidity;BME280_pressure;Samples;Min_cycle;Max_cycle;Signal;HPM_P1;HPM_P2
2023/09/26 00:00:49;;;;;;;;;;;10.40;99.90;;;;;;20975351;28;20379;-76
2023/09/26 00:10:50;;;;;;;;;;;10.20;99.90;;;;;;20969524;28;20364;-76
2023/09/26 00:20:50;;;;;;;;;;;9.90;99.90;;;;;;20965905;28;19919;-76
2023/09/26 00:30:51;;;;;;;;;;;10.00;99.90;;;;;;20972509;28;20294;-76
2023/09/26 00:40:52;;;;;;;;;;;10.00;99.90;;;;;;20979085;28;19966;-76
2023/09/26 00:50:53;;;;;;;;;;;9.90;99.90;;;;;;20981287;28;19912;-76
2023/09/26 01:00:53;;;;;;;;;;;9.70;99.90;;;;;;21000724;28;19920;-75
2023/09/26 01:10:54;;;;;;;;;;;9.60;99.90;;;;;;20965099;28;20295;-76
2023/09/26 01:20:55;;;;;;;;;;;9.60;99.90;;;;;;20947997;28;20421;-76
2023/09/26 01:30:55;;;;;;;;;;;9.50;99.90;;;;;;20968804;28;19917;-76
2023/09/26 01:40:56;;;;;;;;;;;9.50;99.90;;;;;;20961015;28;20402;-76
2023/09/26 01:50:57;;;;;;;;;;;9.60;99.90;;;;;;20969544;28;19917;-76
2023/09/26 02:00:58;;;;;;;;;;;9.60;99.90;;;;;;20969016;28;20415;-76
2023/09/26 02:10:59;;;;;;;;;;;9.70;99.90;;;;;;20963468;28;19913;-76
2023/09/26 02:20:59;;;;;;;;;;;9.90;99.90;;;;;;20977268;28;19921;-75
2023/09/26 02:31:00;;;;;;;;;;;10.20;99.90;;;;;;20971900;28;19924;-76
2023/09/26 02:41:01;;;;;;;;;;;10.20;99.90;;;;;;20962498;28;19920;-76
2023/09/26 02:51:04;;;;;;;;;;;10.20;99.90;;;;;;20962344;28;20019;-76
2023/09/26 03:01:05;;;;;;;;;;;10.10;99.90;;;;;;20973706;28;19927;-76
2023/09/26 03:11:06;;;;;;;;;;;9.90;99.90;;;;;;20991465;28;19916;-76
2023/09/26 03:21:07;;;;;;;;;;;10.00;99.90;;;;;;20965214;28;19929;-75
2023/09/26 03:31:11;;;;;;;;;;;9.90;99.90;;;;;;20958396;28;19943;-75
2023/09/26 03:41:12;;;;;;;;;;;9.80;99.90;;;;;;20968883;28;20338;-75
2023/09/26 03:51:13;;;;;;;;;;;9.60;99.90;;;;;;20972972;28;19958;-75
2023/09/26 04:01:14;;;;;;;;;;;9.60;99.90;;;;;;20976761;28;19956;-75
2023/09/26 04:11:15;;;;;;;;;;;8.80;99.90;;;;;;20979804;28;20011;-75
2023/09/26 04:21:16;;;;;;;;;;;9.20;99.90;;;;;;20980116;28;19927;-76
2023/09/26 04:31:17;;;;;;;;;;;9.30;99.90;;;;;;20973959;28;20387;-76
2023/09/26 04:41:18;;;;;;;;;;;9.10;99.90;;;;;;20974615;28;20391;-76
2023/09/26 04:51:19;;;;;;;;;;;9.10;99.90;;;;;;20974309;28;19920;-75
2023/09/26 05:01:24;;;;;;;;;;;9.00;99.90;;;;;;20970617;28;19917;-76
2023/09/26 05:11:27;;;;;;;;;;;8.90;99.90;;;;;;20978966;28;19919;-75
2023/09/26 05:21:28;;;;;;;;;;;8.70;99.90;;;;;;20969773;28;19923;-75
2023/09/26 05:31:32;;;;;;;;;;;8.50;99.90;;;;;;20971506;28;20011;-75
2023/09/26 05:41:33;;;;;;;;;;;8.50;99.90;;;;;;20975929;28;19938;-75
2023/09/26 05:51:34;;;;;;;;;;;8.40;99.90;;;;;;20981553;28;19981;-75
2023/09/26 06:01:34;;;;;;;;;;;8.40;99.90;;;;;;20977882;28;19916;-75
2023/09/26 06:11:35;;;;;;;;;;;8.50;99.90;;;;;;20974385;28;20310;-75
2023/09/26 06:21:36;;;;;;;;;;;8.70;99.90;;;;;;20970325;28;20010;-75
2023/09/26 06:31:40;;;;;;;;;;;8.80;99.90;;;;;;20967360;28;20324;-75
2023/09/26 06:41:40;;;;;;;;;;;8.90;99.90;;;;;;20962825;28;20434;-74
2023/09/26 06:51:42;;;;;;;;;;;9.00;99.90;;;;;;20976540;28;19919;-75
2023/09/26 07:01:43;;;;;;;;;;;9.20;99.90;;;;;;20968799;28;19916;-75
2023/09/26 07:11:44;;;;;;;;;;;9.20;99.90;;;;;;20968698;28;20400;-74
2023/09/26 07:21:44;;;;;;;;;;;9.40;99.90;;;;;;20969333;28;19916;-74
2023/09/26 07:31:45;;;;;;;;;;;9.60;99.90;;;;;;20984635;28;19916;-75
2023/09/26 07:41:47;;;;;;;;;;;10.20;99.90;;;;;;20988296;28;19954;-75
2023/09/26 07:51:48;;;;;;;;;;;10.90;99.90;;;;;;20983487;28;19912;-75
2023/09/26 08:01:49;;;;;;;;;;;11.10;99.90;;;;;;20991679;28;19916;-75
2023/09/26 08:11:49;;;;;;;;;;;11.70;99.90;;;;;;20983735;28;19913;-75
2023/09/26 08:21:50;;;;;;;;;;;12.00;99.90;;;;;;20981864;28;19943;-75
2023/09/26 08:31:51;;;;;;;;;;;12.70;99.90;;;;;;20981166;28;20322;-75
2023/09/26 08:41:52;;;;;;;;;;;13.90;99.90;;;;;;20979492;28;20019;-75
2023/09/26 08:51:53;;;;;;;;;;;15.20;99.90;;;;;;20986559;28;19947;-75
2023/09/26 09:01:54;;;;;;;;;;;15.20;99.90;;;;;;20997748;28;19997;-75
2023/09/26 09:11:55;;;;;;;;;;;16.00;99.90;;;;;;20981601;28;20291;-76
2023/09/26 09:22:12;;;;;;;;;;;17.60;99.90;;;;;;20992328;28;19920;-76
2023/09/26 09:32:13;;;;;;;;;;;19.30;99.90;;;;;;21003723;28;19996;-76
2023/09/26 09:42:14;;;;;;;;;;;19.10;99.90;;;;;;20983759;28;19968;-76
2023/09/26 09:52:17;;;;;;;;;;;20.40;99.90;;;;;;20983194;28;19920;-76
2023/09/26 10:02:17;;;;;;;;;;;20.70;99.90;;;;;;20990774;28;19917;-76
2023/09/26 10:12:18;;;;;;;;;;;21.80;99.90;;;;;;20987916;28;19920;-76
2023/09/26 10:22:19;;;;;;;;;;;21.80;99.90;;;;;;20986789;28;19930;-76
2023/09/26 10:32:37;;;;;;;;;;;23.20;99.90;;;;;;20987773;28;19916;-76
2023/09/26 10:42:42;;;;;;;;;;;22.50;99.90;;;;;;20981859;28;19924;-76
2023/09/26 10:52:49;;;;;;;;;;;23.90;99.90;;;;;;20975816;28;19912;-76
2023/09/26 11:02:49;;;;;;;;;;;25.00;99.90;;;;;;20972876;28;19920;-76
2023/09/26 11:12:50;;;;;;;;;;;24.20;99.90;;;;;;20974974;28;20447;-76
2023/09/26 11:22:52;;;;;;;;;;;24.80;99.90;;;;;;20974574;28;20295;-76
2023/09/26 11:32:54;;;;;;;;;;;23.70;99.90;;;;;;20990763;28;20352;-76
2023/09/26 11:42:59;;;;;;;;;;;24.50;99.90;;;;;;20987816;28;19917;-77
2023/09/26 11:53:00;;;;;;;;;;;25.00;99.90;;;;;;20991001;28;19913;-76
2023/09/26 12:03:01;;;;;;;;;;;25.80;99.90;;;;;;20985963;28;20334;-76
2023/09/26 12:13:06;;;;;;;;;;;26.20;99.90;;;;;;20997585;28;20007;-76
2023/09/26 12:23:09;;;;;;;;;;;26.70;99.90;;;;;;20999017;28;20326;-76
2023/09/26 12:33:10;;;;;;;;;;;26.60;98.30;;;;;;20997166;28;20378;-76
2023/09/26 12:43:11;;;;;;;;;;;26.40;99.90;;;;;;20991359;28;19917;-76
2023/09/26 12:53:12;;;;;;;;;;;26.50;99.90;;;;;;20993467;28;19920;-76
2023/09/26 13:03:14;;;;;;;;;;;27.20;96.80;;;;;;20987185;28;19962;-76
2023/09/26 13:13:14;;;;;;;;;;;24.90;99.70;;;;;;20995429;28;19964;-76
2023/09/26 13:23:15;;;;;;;;;;;25.80;99.90;;;;;;20985397;28;20292;-76
2023/09/26 13:33:17;;;;;;;;;;;26.60;98.50;;;;;;20992764;28;19912;-77
2023/09/26 13:43:17;;;;;;;;;;;27.10;98.10;;;;;;21012574;28;19944;-77
2023/09/26 13:53:18;;;;;;;;;;;27.80;98.80;;;;;;20994394;28;19913;-76
2023/09/26 14:03:19;;;;;;;;;;;28.00;96.00;;;;;;20988192;28;20390;-76
2023/09/26 14:13:24;;;;;;;;;;;27.60;96.20;;;;;;20989668;28;20198;-76
2023/09/26 14:23:25;;;;;;;;;;;27.80;97.30;;;;;;20996450;28;19924;-76
2023/09/26 14:33:26;;;;;;;;;;;27.90;99.60;;;;;;20993184;28;20282;-76
2023/09/26 14:43:27;;;;;;;;;;;27.60;98.20;;;;;;20985898;28;19920;-76
2023/09/26 14:53:28;;;;;;;;;;;27.10;99.90;;;;;;20983801;28;19919;-76
2023/09/26 15:03:28;;;;;;;;;;;26.50;99.50;;;;;;20981554;28;20305;-76
2023/09/26 15:13:29;;;;;;;;;;;27.10;98.20;;;;;;20974355;28;20400;-76
2023/09/26 15:23:30;;;;;;;;;;;26.70;99.20;;;;;;20982158;28;19923;-76
2023/09/26 15:33:32;;;;;;;;;;;26.80;99.80;;;;;;20980342;28;20275;-76
2023/09/26 15:43:32;;;;;;;;;;;25.70;99.90;;;;;;20965395;28;19954;-76
2023/09/26 15:53:33;;;;;;;;;;;25.40;99.90;;;;;;20994693;28;19912;-76
2023/09/26 16:03:34;;;;;;;;;;;24.30;99.90;;;;;;21000809;28;19919;-76
2023/09/26 16:13:35;;;;;;;;;;;23.50;99.90;;;;;;21010638;28;20367;-76
2023/09/26 16:23:35;;;;;;;;;;;23.00;99.90;;;;;;20996352;28;20113;-77
2023/09/26 16:33:36;;;;;;;;;;;22.60;99.90;;;;;;21006796;28;19998;-76
2023/09/26 16:43:36;;;;;;;;;;;22.00;99.90;;;;;;20996077;28;19920;-75
2023/09/26 16:53:40;;;;;;;;;;;20.90;99.90;;;;;;20996609;28;19912;-76
2023/09/26 17:03:41;;;;;;;;;;;20.00;99.90;;;;;;20994399;28;20064;-76
2023/09/26 17:13:41;;;;;;;;;;;19.50;99.90;;;;;;21002108;28;19947;-76
2023/09/26 17:23:42;;;;;;;;;;;19.10;99.90;;;;;;20998094;28;19995;-76
2023/09/26 17:33:43;;;;;;;;;;;18.20;99.90;;;;;;20988540;28;19912;-76
2023/09/26 17:43:43;;;;;;;;;;;17.60;99.90;;;;;;20990527;28;19916;-75
2023/09/26 17:53:44;;;;;;;;;;;17.70;99.90;;;;;;20999329;28;20369;-76
2023/09/26 18:03:45;;;;;;;;;;;17.00;99.90;;;;;;20979401;28;19923;-76
2023/09/26 18:13:45;;;;;;;;;;;16.50;99.90;;;;;;20998105;28;19919;-77
2023/09/26 18:23:46;;;;;;;;;;;16.10;99.90;;;;;;20997581;28;20295;-76
2023/09/26 18:33:47;;;;;;;;;;;15.70;99.90;;;;;;20993324;28;19916;-77
2023/09/26 18:43:48;;;;;;;;;;;15.20;99.90;;;;;;21005795;28;19920;-77
2023/09/26 18:53:48;;;;;;;;;;;14.90;99.90;;;;;;20987039;28;19913;-76
2023/09/26 19:03:50;;;;;;;;;;;14.50;99.90;;;;;;20990061;28;20440;-76
2023/09/26 19:13:51;;;;;;;;;;;14.40;99.90;;;;;;20990459;28;19913;-76
2023/09/26 19:23:51;;;;;;;;;;;14.50;99.90;;;;;;21000821;28;19955;-77
2023/09/26 19:33:52;;;;;;;;;;;14.20;99.90;;;;;;21003599;28;19912;-76
2023/09/26 19:43:53;;;;;;;;;;;13.80;99.90;;;;;;20996402;28;19916;-77
2023/09/26 19:53:53;;;;;;;;;;;13.80;99.90;;;;;;20973629;28;19913;-76
2023/09/26 20:03:54;;;;;;;;;;;13.60;99.90;;;;;;20967340;28;19916;-76
2023/09/26 20:13:54;;;;;;;;;;;13.20;99.90;;;;;;20990558;28;19934;-75
2023/09/26 20:23:55;;;;;;;;;;;12.80;99.90;;;;;;20999231;28;19996;-76
2023/09/26 20:33:56;;;;;;;;;;;12.60;99.90;;;;;;21017988;28;19921;-76
2023/09/26 20:43:57;;;;;;;;;;;12.70;99.90;;;;;;21006774;28;19929;-76
2023/09/26 20:53:58;;;;;;;;;;;12.60;99.90;;;;;;21003924;28;20444;-76
2023/09/26 21:04:00;;;;;;;;;;;12.50;99.90;;;;;;20995578;28;19952;-75
2023/09/26 21:14:00;;;;;;;;;;;12.30;99.90;;;;;;21007006;28;20280;-75
2023/09/26 21:24:02;;;;;;;;;;;12.10;99.90;;;;;;21005025;28;19923;-76
2023/09/26 21:34:03;;;;;;;;;;;12.20;99.90;;;;;;20991239;28;20295;-75
2023/09/26 21:44:04;;;;;;;;;;;12.20;99.90;;;;;;20967479;28;19922;-75
2023/09/26 21:54:05;;;;;;;;;;;12.00;99.90;;;;;;20967010;28;19966;-75
2023/09/26 22:04:05;;;;;;;;;;;12.30;99.90;;;;;;20999364;28;19966;-75
2023/09/26 22:14:06;;;;;;;;;;;12.10;99.90;;;;;;21001298;28;20260;-75
2023/09/26 22:24:08;;;;;;;;;;;12.60;99.90;;;;;;20997364;28;19921;-75
2023/09/26 22:34:08;;;;;;;;;;;12.80;99.90;;;;;;21001797;28;19912;-75
2023/09/26 22:44:09;;;;;;;;;;;12.20;99.90;;;;;;20993919;28;19923;-75
2023/09/26 22:54:10;;;;;;;;;;;12.40;99.90;;;;;;20995075;28;19912;-75
2023/09/26 23:04:10;;;;;;;;;;;12.30;99.90;;;;;;20991685;28;20029;-75
2023/09/26 23:14:11;;;;;;;;;;;12.00;99.90;;;;;;20997106;28;19913;-75
2023/09/26 23:24:12;;;;;;;;;;;12.20;99.90;;;;;;20997263;28;20414;-75
2023/09/26 23:34:12;;;;;;;;;;;11.90;99.90;;;;;;20991200;28;19913;-75
2023/09/26 23:44:14;;;;;;;;;;;12.00;99.90;;;;;;20996048;28;19923;-75
2023/09/26 23:54:15;;;;;;;;;;;11.90;99.90;;;;;;20998984;28;19912;-75
